Time;durP1;ratioP1;P1;durP2;ratioP2;P2;SDS_P1;SDS_P2;PMS_P1;PMS_P2;Temp;Humidity;BMP_temperature;BMP_pressure;BME280_temperature;BME280_humidity;BME280_pressure;Samples;Min_cycle;Max_cycle;Signal;HPM_P1;HPM_P2
2022/11/21 00:00:33;;;;;;;;;;;0.10;95.40;;;;;;4948752;29;1022;-68
2022/11/21 00:03:01;;;;;;;;;;;0.30;95.50;;;;;;4947375;28;1285;-69
2022/11/21 00:05:29;;;;;;;;;;;0.10;95.20;;;;;;4945881;28;1135;-68
2022/11/21 00:07:57;;;;;;;;;;;0.10;95.10;;;;;;4943520;29;1998;-68
2022/11/21 00:10:25;;;;;;;;;;;0.10;95.10;;;;;;4941324;29;1535;-68
2022/11/21 00:12:53;;;;;;;;;;;0.20;95.10;;;;;;4949168;29;1262;-69
2022/11/21 00:15:21;;;;;;;;;;;0.10;94.90;;;;;;4946786;29;1910;-69
2022/11/21 00:17:51;;;;;;;;;;;0.20;94.80;;;;;;4951025;29;982;-68
2022/11/21 00:20:19;;;;;;;;;;;0.30;94.90;;;;;;4942917;29;1584;-67
2022/11/21 00:22:47;;;;;;;;;;;0.20;94.70;;;;;;4945437;29;1284;-68
2022/11/21 00:25:14;;;;;;;;;;;0.20;94.90;;;;;;4946495;29;1527;-68
2022/11/21 00:27:42;;;;;;;;;;;0.20;94.90;;;;;;4944894;29;1101;-68
2022/11/21 00:30:11;;;;;;;;;;;0.20;94.80;;;;;;4945702;29;1171;-68
2022/11/21 00:32:39;;;;;;;;;;;0.20;94.70;;;;;;4948858;29;1347;-70
2022/11/21 00:35:08;;;;;;;;;;;0.20;95.00;;;;;;4941460;29;1906;-70
2022/11/21 00:37:35;;;;;;;;;;;0.20;94.80;;;;;;4942410;29;1950;-68
2022/11/21 00:40:03;;;;;;;;;;;0.20;94.70;;;;;;4942860;29;1258;-67
2022/11/21 00:42:31;;;;;;;;;;;0.10;94.40;;;;;;4945237;29;1684;-69
2022/11/21 00:44:59;;;;;;;;;;;0.20;94.40;;;;;;4944014;29;1648;-68
2022/11/21 00:47:26;;;;;;;;;;;0.10;94.30;;;;;;4942735;28;1551;-70
2022/11/21 00:49:54;;;;;;;;;;;0.10;94.40;;;;;;4940830;29;1841;-70
2022/11/21 00:52:23;;;;;;;;;;;0.00;94.50;;;;;;4947892;29;1765;-70
2022/11/21 00:54:50;;;;;;;;;;;0.00;94.50;;;;;;4943781;29;1907;-70
2022/11/21 00:57:18;;;;;;;;;;;0.00;94.70;;;;;;4947263;29;1599;-69
2022/11/21 00:59:45;;;;;;;;;;;0.00;94.50;;;;;;4943098;29;1443;-70
2022/11/21 01:02:13;;;;;;;;;;;0.00;94.50;;;;;;4946613;29;1324;-69
2022/11/21 01:04:41;;;;;;;;;;;-0.10;94.50;;;;;;4949925;29;1030;-69
2022/11/21 01:07:08;;;;;;;;;;;-0.10;94.60;;;;;;4942010;29;1738;-70
2022/11/21 01:09:37;;;;;;;;;;;-0.10;94.50;;;;;;4943607;28;1623;-68
2022/11/21 01:12:05;;;;;;;;;;;-0.20;94.50;;;;;;4947861;29;1707;-70
2022/11/21 01:14:33;;;;;;;;;;;-0.20;94.60;;;;;;4943548;29;1876;-69
2022/11/21 01:17:00;;;;;;;;;;;-0.20;94.50;;;;;;4942713;29;1090;-70
2022/11/21 01:19:28;;;;;;;;;;;-0.20;94.50;;;;;;4942643;29;1737;-69
2022/11/21 01:21:55;;;;;;;;;;;-0.10;94.60;;;;;;4947885;29;1671;-69
2022/11/21 01:24:23;;;;;;;;;;;-0.20;94.60;;;;;;4943469;29;1082;-70
2022/11/21 01:26:53;;;;;;;;;;;-0.20;94.60;;;;;;4946609;29;1200;-71
2022/11/21 01:29:20;;;;;;;;;;;-0.20;94.70;;;;;;4964157;29;1544;-69
2022/11/21 01:31:48;;;;;;;;;;;-0.20;94.70;;;;;;4953236;28;1691;-68
2022/11/21 01:34:17;;;;;;;;;;;-0.20;94.70;;;;;;4944624;29;1694;-70
2022/11/21 01:36:45;;;;;;;;;;;-0.40;94.90;;;;;;4944392;29;1914;-69
2022/11/21 01:39:12;;;;;;;;;;;-0.30;94.90;;;;;;4943477;29;1072;-70
2022/11/21 01:41:41;;;;;;;;;;;-0.20;94.90;;;;;;4939375;29;1281;-69
2022/11/21 01:44:17;;;;;;;;;;;-0.20;94.60;;;;;;4945596;29;984;-69
2022/11/21 01:46:45;;;;;;;;;;;-0.20;94.70;;;;;;4946914;29;1020;-69
2022/11/21 01:49:14;;;;;;;;;;;-0.20;94.70;;;;;;4942425;29;1079;-69
2022/11/21 01:51:43;;;;;;;;;;;-0.20;94.80;;;;;;4940806;29;1294;-69
2022/11/21 01:54:12;;;;;;;;;;;-0.20;94.70;;;;;;4948735;29;1090;-69
2022/11/21 01:56:41;;;;;;;;;;;-0.20;94.80;;;;;;4945954;29;1910;-69
2022/11/21 01:59:10;;;;;;;;;;;-0.20;94.60;;;;;;4941302;29;1121;-70
2022/11/21 02:01:39;;;;;;;;;;;-0.10;94.70;;;;;;4944418;29;1297;-68
2022/11/21 02:04:07;;;;;;;;;;;0.00;94.70;;;;;;4946206;29;1008;-69
2022/11/21 02:06:36;;;;;;;;;;;-0.10;94.60;;;;;;4944477;29;1003;-69
2022/11/21 02:09:05;;;;;;;;;;;-0.10;94.50;;;;;;4945952;29;1066;-69
2022/11/21 02:11:40;;;;;;;;;;;-0.20;94.50;;;;;;4946709;29;1298;-69
2022/11/21 02:20:14;;;;;;;;;;;-0.30;94.60;;;;;;5017231;28;907;-84
2022/11/21 02:22:44;;;;;;;;;;;-0.20;94.40;;;;;;5015343;28;1072;-85
2022/11/21 02:25:15;;;;;;;;;;;-0.30;94.30;;;;;;5017407;28;1031;-85
2022/11/21 02:27:42;;;;;;;;;;;-0.30;94.00;;;;;;5017237;28;1538;-85
2022/11/21 02:30:10;;;;;;;;;;;-0.30;93.90;;;;;;5016412;28;1523;-85
2022/11/21 02:32:39;;;;;;;;;;;-0.30;94.30;;;;;;5018651;28;973;-85
2022/11/21 02:35:07;;;;;;;;;;;-0.10;94.40;;;;;;5021390;28;1906;-86
2022/11/21 02:37:36;;;;;;;;;;;-0.30;94.40;;;;;;5021095;28;1512;-85
2022/11/21 02:40:07;;;;;;;;;;;-0.30;94.30;;;;;;5021644;28;1268;-85
2022/11/21 02:42:37;;;;;;;;;;;-0.40;94.30;;;;;;5021099;28;1310;-86
2022/11/21 02:45:09;;;;;;;;;;;-0.40;94.30;;;;;;5020058;28;1678;-85
2022/11/21 02:47:38;;;;;;;;;;;-0.30;94.40;;;;;;5020625;28;1059;-85
2022/11/21 02:50:09;;;;;;;;;;;-0.30;94.20;;;;;;5020517;28;1493;-86
2022/11/21 02:52:37;;;;;;;;;;;-0.30;94.20;;;;;;5020999;28;1008;-85
2022/11/21 02:55:05;;;;;;;;;;;-0.40;93.70;;;;;;5020723;28;836;-86
2022/11/21 02:57:33;;;;;;;;;;;-0.40;93.90;;;;;;5019962;28;1985;-86
2022/11/21 03:00:02;;;;;;;;;;;-0.40;93.60;;;;;;5014129;28;1219;-86
2022/11/21 03:02:29;;;;;;;;;;;-0.10;94.00;;;;;;5020815;28;1559;-86
2022/11/21 03:04:57;;;;;;;;;;;-0.20;93.70;;;;;;5021630;28;1389;-84
2022/11/21 03:07:25;;;;;;;;;;;-0.50;93.80;;;;;;5020270;28;1344;-85
2022/11/21 03:09:52;;;;;;;;;;;-0.50;93.80;;;;;;5019042;28;1419;-86
2022/11/21 03:12:20;;;;;;;;;;;-0.50;93.90;;;;;;5020842;28;1018;-86
2022/11/21 03:14:48;;;;;;;;;;;-0.50;93.70;;;;;;5021190;28;981;-83
2022/11/21 03:17:17;;;;;;;;;;;-0.60;93.70;;;;;;5021094;28;1906;-85
2022/11/21 03:19:44;;;;;;;;;;;-0.30;94.00;;;;;;5021772;28;1312;-85
2022/11/21 03:22:12;;;;;;;;;;;-0.50;93.70;;;;;;5024485;28;1181;-83
2022/11/21 03:24:40;;;;;;;;;;;-0.60;94.10;;;;;;5041594;28;1406;-83
2022/11/21 03:27:08;;;;;;;;;;;-0.60;93.80;;;;;;5023287;28;868;-84
2022/11/21 03:29:36;;;;;;;;;;;-0.50;93.50;;;;;;5018812;28;1466;-84
2022/11/21 03:32:03;;;;;;;;;;;-0.50;93.40;;;;;;5020306;28;1183;-85
2022/11/21 03:34:35;;;;;;;;;;;-0.50;93.80;;;;;;5020041;28;1061;-83
2022/11/21 03:37:03;;;;;;;;;;;-0.50;93.90;;;;;;5019510;28;1882;-83
2022/11/21 03:39:30;;;;;;;;;;;-0.60;93.60;;;;;;5015734;28;1333;-84
2022/11/21 03:41:58;;;;;;;;;;;-0.50;93.70;;;;;;5017973;28;1548;-84
2022/11/21 03:44:25;;;;;;;;;;;-0.60;93.70;;;;;;5018978;28;989;-83
2022/11/21 03:46:54;;;;;;;;;;;-0.50;93.50;;;;;;5019776;28;982;-84
2022/11/21 03:49:21;;;;;;;;;;;-0.60;93.30;;;;;;5015595;28;1410;-83
2022/11/21 03:51:50;;;;;;;;;;;-0.50;93.40;;;;;;5019397;28;1065;-83
2022/11/21 03:54:18;;;;;;;;;;;-0.50;93.60;;;;;;5019810;28;1353;-83
2022/11/21 03:56:46;;;;;;;;;;;-0.60;93.30;;;;;;5016118;28;1911;-84
2022/11/21 03:59:13;;;;;;;;;;;-0.60;93.60;;;;;;5014689;28;1363;-82
2022/11/21 04:01:41;;;;;;;;;;;-0.60;93.50;;;;;;5018222;28;985;-83
2022/11/21 04:04:09;;;;;;;;;;;-0.60;93.60;;;;;;5017917;28;1497;-85
2022/11/21 04:06:36;;;;;;;;;;;-0.60;93.40;;;;;;5017550;28;1408;-85
2022/11/21 04:09:05;;;;;;;;;;;-0.50;93.20;;;;;;5017446;28;1340;-85
2022/11/21 04:11:33;;;;;;;;;;;-0.50;93.90;;;;;;5005651;28;1021;-87
2022/11/21 04:14:01;;;;;;;;;;;-0.60;93.80;;;;;;5018566;28;1044;-83
2022/11/21 04:16:28;;;;;;;;;;;-0.80;93.70;;;;;;5019589;28;1907;-84
2022/11/21 04:18:56;;;;;;;;;;;-0.90;93.90;;;;;;5019142;28;1312;-82
2022/11/21 04:21:24;;;;;;;;;;;-0.90;94.10;;;;;;5020117;28;1044;-83
2022/11/21 04:23:51;;;;;;;;;;;-0.90;94.00;;;;;;5019007;28;1365;-82
2022/11/21 04:26:20;;;;;;;;;;;-0.60;94.20;;;;;;5018723;28;953;-84
2022/11/21 04:28:48;;;;;;;;;;;-0.90;94.50;;;;;;5020297;28;1483;-84
2022/11/21 04:31:16;;;;;;;;;;;-0.90;94.30;;;;;;5021521;28;1054;-84
2022/11/21 04:33:43;;;;;;;;;;;-0.90;94.40;;;;;;5039070;28;1062;-83
2022/11/21 04:36:11;;;;;;;;;;;-1.00;94.50;;;;;;5023563;28;1422;-83
2022/11/21 04:38:38;;;;;;;;;;;-0.80;94.70;;;;;;5018848;28;1437;-83
2022/11/21 04:41:06;;;;;;;;;;;-0.80;94.60;;;;;;5019243;28;1578;-83
2022/11/21 04:43:35;;;;;;;;;;;-1.00;94.60;;;;;;5018596;28;1010;-83
2022/11/21 04:46:03;;;;;;;;;;;-1.00;94.40;;;;;;5020287;28;1250;-85
2022/11/21 04:48:31;;;;;;;;;;;-1.00;94.30;;;;;;5018255;28;1422;-84
2022/11/21 04:50:59;;;;;;;;;;;-1.00;94.20;;;;;;5016242;28;1472;-85
2022/11/21 04:53:26;;;;;;;;;;;-1.00;94.40;;;;;;5019449;28;1477;-85
2022/11/21 04:55:54;;;;;;;;;;;-0.80;94.40;;;;;;5018791;28;1419;-84
2022/11/21 04:58:22;;;;;;;;;;;-0.80;94.60;;;;;;5019338;28;1987;-83
2022/11/21 05:00:51;;;;;;;;;;;-1.10;94.40;;;;;;5018813;28;1536;-83
2022/11/21 05:03:19;;;;;;;;;;;-1.10;94.40;;;;;;5016313;28;990;-84
2022/11/21 05:05:50;;;;;;;;;;;-1.10;94.10;;;;;;5018039;28;1582;-82
2022/11/21 05:08:18;;;;;;;;;;;-0.90;94.10;;;;;;5018029;28;1548;-84
2022/11/21 05:13:31;;;;;;;;;;;-1.20;94.50;;;;;;5017226;28;1374;-83
2022/11/21 05:16:00;;;;;;;;;;;-1.20;94.20;;;;;;5016015;28;1727;-84
2022/11/21 05:18:28;;;;;;;;;;;-1.20;94.50;;;;;;5011958;28;1988;-84
2022/11/21 05:20:56;;;;;;;;;;;-1.20;94.40;;;;;;5015881;28;1528;-84
2022/11/21 05:23:23;;;;;;;;;;;-1.20;94.10;;;;;;5013355;28;1412;-85
2022/11/21 05:25:51;;;;;;;;;;;-1.30;94.80;;;;;;5016522;28;2643;-84
2022/11/21 05:28:19;;;;;;;;;;;-1.30;94.90;;;;;;5016687;28;1417;-86
2022/11/21 05:30:47;;;;;;;;;;;-1.60;95.00;;;;;;5017574;28;1073;-87
2022/11/21 05:33:16;;;;;;;;;;;-1.60;95.10;;;;;;5015851;28;1500;-85
2022/11/21 05:35:43;;;;;;;;;;;-1.70;95.50;;;;;;5017691;28;1025;-86
2022/11/21 05:38:11;;;;;;;;;;;-1.70;95.50;;;;;;5021938;28;2001;-85
2022/11/21 05:40:39;;;;;;;;;;;-1.70;95.30;;;;;;5025627;28;1582;-85
2022/11/21 05:45:51;;;;;;;;;;;-1.80;96.00;;;;;;5027564;28;1076;-85
2022/11/21 05:48:21;;;;;;;;;;;-1.80;95.80;;;;;;5020665;28;1422;-84
2022/11/21 05:50:49;;;;;;;;;;;-1.60;96.10;;;;;;5023688;28;1866;-83
2022/11/21 05:53:17;;;;;;;;;;;-1.80;96.10;;;;;;5025880;28;1065;-83
2022/11/21 05:55:44;;;;;;;;;;;-1.80;95.90;;;;;;5026445;28;1018;-83
2022/11/21 05:58:12;;;;;;;;;;;-1.80;96.00;;;;;;5024052;28;1952;-83
2022/11/21 06:00:40;;;;;;;;;;;-1.70;96.40;;;;;;5021377;28;1418;-85
2022/11/21 06:03:26;;;;;;;;;;;-1.60;96.00;;;;;;5021198;28;1147;-85
2022/11/21 06:05:59;;;;;;;;;;;-1.50;97.20;;;;;;5021832;28;1077;-84
2022/11/21 06:08:27;;;;;;;;;;;-1.40;96.80;;;;;;5021731;28;1448;-83
2022/11/21 06:10:55;;;;;;;;;;;-1.30;96.20;;;;;;5028225;28;992;-84
2022/11/21 06:13:23;;;;;;;;;;;-1.30;95.70;;;;;;5026684;28;2354;-83
2022/11/21 06:15:52;;;;;;;;;;;-1.30;95.40;;;;;;5023802;28;1406;-83
2022/11/21 06:18:20;;;;;;;;;;;-1.20;95.70;;;;;;5025378;28;1892;-86
2022/11/21 06:20:48;;;;;;;;;;;-1.20;95.30;;;;;;5027077;28;977;-85
2022/11/21 06:23:18;;;;;;;;;;;-1.20;95.40;;;;;;5023981;28;2552;-83
2022/11/21 06:25:46;;;;;;;;;;;-0.90;95.80;;;;;;5025526;28;1399;-85
2022/11/21 06:28:14;;;;;;;;;;;-1.10;96.00;;;;;;5026814;28;1583;-84
2022/11/21 06:30:41;;;;;;;;;;;-1.00;96.00;;;;;;5024429;28;1236;-86
2022/11/21 06:33:09;;;;;;;;;;;-1.00;96.00;;;;;;5019159;28;996;-87
2022/11/21 06:35:38;;;;;;;;;;;-1.20;95.80;;;;;;5022156;28;1728;-85
2022/11/21 06:38:06;;;;;;;;;;;-0.90;96.20;;;;;;5022245;28;2429;-85
2022/11/21 06:40:35;;;;;;;;;;;-0.80;95.80;;;;;;5020804;28;1341;-86
2022/11/21 06:43:03;;;;;;;;;;;-0.90;96.20;;;;;;5017106;28;1588;-86
2022/11/21 06:45:31;;;;;;;;;;;-0.90;96.00;;;;;;5021781;28;1563;-85
2022/11/21 06:48:01;;;;;;;;;;;-1.00;95.90;;;;;;5022884;28;1422;-85
2022/11/21 06:50:29;;;;;;;;;;;-1.00;96.20;;;;;;5015813;28;1009;-85
2022/11/21 06:52:57;;;;;;;;;;;-1.00;95.70;;;;;;5033705;28;1009;-86
2022/11/21 06:55:26;;;;;;;;;;;-1.00;95.60;;;;;;5035298;28;869;-84
2022/11/21 06:57:58;;;;;;;;;;;-0.80;95.50;;;;;;5021681;28;1906;-84
2022/11/21 07:00:27;;;;;;;;;;;-1.10;95.70;;;;;;5021126;28;918;-84
2022/11/21 07:02:59;;;;;;;;;;;-1.30;95.50;;;;;;5022275;28;1100;-84
2022/11/21 07:05:30;;;;;;;;;;;-1.10;95.80;;;;;;5025038;28;1088;-82
2022/11/21 07:07:58;;;;;;;;;;;-1.10;95.70;;;;;;5026276;28;1441;-83
2022/11/21 07:10:26;;;;;;;;;;;-1.10;95.70;;;;;;5019441;28;1029;-83
2022/11/21 07:15:43;;;;;;;;;;;-1.10;96.20;;;;;;5024611;28;1013;-83
2022/11/21 07:18:11;;;;;;;;;;;-1.10;95.90;;;;;;5023243;28;1996;-82
2022/11/21 07:20:39;;;;;;;;;;;-1.10;95.80;;;;;;5020288;28;1049;-85
2022/11/21 07:23:07;;;;;;;;;;;-1.20;96.10;;;;;;5021754;28;1069;-85
2022/11/21 07:25:34;;;;;;;;;;;-1.20;96.10;;;;;;5016648;28;1395;-85
2022/11/21 07:28:04;;;;;;;;;;;-1.20;95.80;;;;;;5020774;28;1510;-86
2022/11/21 07:30:31;;;;;;;;;;;-1.20;95.90;;;;;;5021728;28;1202;-85
2022/11/21 07:33:01;;;;;;;;;;;-0.90;95.80;;;;;;5018445;28;923;-85
2022/11/21 07:35:29;;;;;;;;;;;-1.10;95.80;;;;;;5020081;28;1080;-84
2022/11/21 07:37:57;;;;;;;;;;;-1.10;95.50;;;;;;5019485;28;2426;-83
2022/11/21 07:40:25;;;;;;;;;;;-1.20;95.60;;;;;;5020175;28;2631;-84
2022/11/21 07:42:53;;;;;;;;;;;-1.10;96.10;;;;;;5021157;28;1088;-84
2022/11/21 07:45:20;;;;;;;;;;;-0.90;95.80;;;;;;5021214;28;1497;-85
2022/11/21 07:47:48;;;;;;;;;;;-1.10;95.80;;;;;;5020100;28;1312;-86
2022/11/21 07:50:17;;;;;;;;;;;-1.10;95.70;;;;;;5021211;28;1838;-84
2022/11/21 07:52:45;;;;;;;;;;;-1.10;95.70;;;;;;5019616;28;1420;-85
2022/11/21 07:55:12;;;;;;;;;;;-1.10;95.70;;;;;;5020614;28;1105;-85
2022/11/21 07:57:40;;;;;;;;;;;-1.00;96.00;;;;;;5018667;28;1685;-85
2022/11/21 08:00:12;;;;;;;;;;;-1.00;95.50;;;;;;5020639;28;1962;-84
2022/11/21 08:02:39;;;;;;;;;;;-1.00;95.90;;;;;;5034809;28;1677;-85
2022/11/21 08:05:07;;;;;;;;;;;-1.00;95.70;;;;;;5029010;28;861;-85
2022/11/21 08:07:37;;;;;;;;;;;-1.00;95.80;;;;;;5020265;28;1065;-83
2022/11/21 08:10:05;;;;;;;;;;;-1.00;95.90;;;;;;5014189;28;2363;-83
2022/11/21 08:12:33;;;;;;;;;;;-1.00;95.80;;;;;;5020201;28;1017;-84
2022/11/21 08:15:00;;;;;;;;;;;-0.90;95.50;;;;;;5019885;28;1105;-84
2022/11/21 08:17:28;;;;;;;;;;;-0.90;95.50;;;;;;5019722;28;1068;-84
2022/11/21 08:19:57;;;;;;;;;;;-0.80;95.70;;;;;;5018107;28;1979;-84
2022/11/21 08:22:25;;;;;;;;;;;-0.80;95.70;;;;;;5019153;28;1068;-83
2022/11/21 08:24:54;;;;;;;;;;;-0.70;95.90;;;;;;5017248;28;1285;-83
2022/11/21 08:27:23;;;;;;;;;;;-0.70;96.00;;;;;;5016360;28;1013;-83
2022/11/21 08:29:50;;;;;;;;;;;-0.70;96.10;;;;;;5020218;28;1229;-83
2022/11/21 08:32:19;;;;;;;;;;;-0.50;95.90;;;;;;5012905;28;2455;-83
2022/11/21 08:34:47;;;;;;;;;;;-0.60;95.90;;;;;;5016585;28;1315;-83
2022/11/21 08:37:15;;;;;;;;;;;-0.50;96.00;;;;;;5018449;28;981;-83
2022/11/21 08:39:42;;;;;;;;;;;-0.20;95.90;;;;;;5019259;28;1887;-85
2022/11/21 08:42:11;;;;;;;;;;;-0.30;96.10;;;;;;5019744;28;1025;-85
2022/11/21 08:44:39;;;;;;;;;;;-0.20;96.10;;;;;;5017813;28;1061;-84
2022/11/21 08:47:07;;;;;;;;;;;0.10;95.70;;;;;;5018530;28;1386;-85
2022/11/21 08:49:34;;;;;;;;;;;0.00;95.50;;;;;;5018353;28;1612;-84
2022/11/21 08:52:02;;;;;;;;;;;0.00;95.50;;;;;;5017465;28;1136;-84
2022/11/21 08:54:30;;;;;;;;;;;0.10;95.30;;;;;;5016633;28;1426;-84
2022/11/21 08:56:57;;;;;;;;;;;0.10;95.40;;;;;;5018507;28;1404;-84
2022/11/21 08:59:26;;;;;;;;;;;0.10;95.30;;;;;;5014923;28;1973;-83
2022/11/21 09:01:54;;;;;;;;;;;0.10;95.40;;;;;;5019548;28;1676;-85
2022/11/21 09:04:22;;;;;;;;;;;0.20;95.00;;;;;;5019731;28;1011;-82
2022/11/21 09:06:49;;;;;;;;;;;0.20;95.20;;;;;;5025307;28;1500;-85
2022/11/21 09:09:19;;;;;;;;;;;0.20;95.10;;;;;;5021525;28;1366;-85
2022/11/21 09:11:52;;;;;;;;;;;0.20;94.90;;;;;;5025130;28;1033;-82
2022/11/21 09:19:51;;;;;;;;;;;0.30;95.10;;;;;;5019843;28;2502;-85
2022/11/21 09:22:18;;;;;;;;;;;0.60;94.80;;;;;;5019378;28;1037;-82
2022/11/21 09:24:46;;;;;;;;;;;0.40;94.60;;;;;;5020195;28;1128;-83
2022/11/21 09:27:14;;;;;;;;;;;0.50;94.70;;;;;;5019357;28;1021;-84
2022/11/21 09:29:41;;;;;;;;;;;0.60;94.60;;;;;;5018334;28;1540;-83
2022/11/21 09:32:14;;;;;;;;;;;0.90;94.60;;;;;;5018872;28;1528;-83
2022/11/21 09:34:42;;;;;;;;;;;0.80;94.40;;;;;;5019439;28;1489;-83
2022/11/21 09:37:10;;;;;;;;;;;0.90;94.00;;;;;;5017443;28;1468;-83
2022/11/21 09:39:37;;;;;;;;;;;0.70;93.90;;;;;;5018899;28;1902;-84
2022/11/21 09:42:30;;;;;;;;;;;1.10;94.10;;;;;;5017586;28;1539;-84
2022/11/21 09:45:03;;;;;;;;;;;1.20;94.00;;;;;;5022983;28;1386;-84
2022/11/21 09:47:34;;;;;;;;;;;1.60;93.50;;;;;;5021116;28;1108;-82
2022/11/21 09:50:02;;;;;;;;;;;1.50;93.20;;;;;;5022592;28;1277;-83
2022/11/21 09:52:35;;;;;;;;;;;1.60;92.90;;;;;;5008503;28;1452;-84
2022/11/21 09:55:04;;;;;;;;;;;1.70;92.50;;;;;;5022079;28;1168;-83
2022/11/21 09:57:34;;;;;;;;;;;1.70;92.20;;;;;;5023628;28;1070;-86
2022/11/21 10:00:04;;;;;;;;;;;2.00;91.60;;;;;;5022506;28;1910;-85
2022/11/21 10:02:36;;;;;;;;;;;1.90;91.90;;;;;;5020471;28;1221;-82
2022/11/21 10:05:04;;;;;;;;;;;1.70;91.50;;;;;;5021156;28;1034;-86
2022/11/21 10:07:32;;;;;;;;;;;1.90;90.80;;;;;;5022053;28;2453;-84
2022/11/21 10:10:16;;;;;;;;;;;1.90;91.70;;;;;;5023073;28;1529;-84
2022/11/21 10:12:50;;;;;;;;;;;1.80;91.50;;;;;;5022022;28;1366;-89
2022/11/21 10:15:30;;;;;;;;;;;1.80;91.60;;;;;;5023350;28;1606;-86
2022/11/21 10:18:11;;;;;;;;;;;1.70;91.70;;;;;;5021932;28;1546;-86
2022/11/21 10:20:46;;;;;;;;;;;1.60;91.60;;;;;;5023011;28;1987;-85
2022/11/21 10:23:22;;;;;;;;;;;1.70;91.20;;;;;;5040454;28;1537;-85
2022/11/21 10:25:54;;;;;;;;;;;1.70;91.20;;;;;;5011830;28;1477;-86
2022/11/21 10:28:28;;;;;;;;;;;1.70;91.00;;;;;;5022112;28;1453;-88
2022/11/21 10:30:58;;;;;;;;;;;1.70;90.60;;;;;;5024189;28;1477;-88
2022/11/21 10:33:31;;;;;;;;;;;1.80;90.60;;;;;;5024531;28;1568;-87
2022/11/21 10:36:01;;;;;;;;;;;2.00;91.00;;;;;;5022042;28;1405;-87
2022/11/21 10:38:37;;;;;;;;;;;1.80;90.70;;;;;;5023519;28;1644;-86
2022/11/21 10:41:10;;;;;;;;;;;1.90;91.00;;;;;;5023083;28;1898;-85
2022/11/21 10:46:26;;;;;;;;;;;2.00;90.60;;;;;;5018960;28;950;-87
2022/11/21 10:48:57;;;;;;;;;;;1.70;89.30;;;;;;5025240;28;1623;-87
2022/11/21 10:51:34;;;;;;;;;;;2.00;90.20;;;;;;5023517;28;1600;-86
2022/11/21 10:57:01;;;;;;;;;;;1.90;90.20;;;;;;5016147;28;1651;-87
2022/11/21 10:59:32;;;;;;;;;;;1.90;90.10;;;;;;5018487;28;1906;-84
2022/11/21 11:02:01;;;;;;;;;;;2.20;89.00;;;;;;5018110;28;1667;-85
2022/11/21 11:04:31;;;;;;;;;;;2.00;89.30;;;;;;5022852;28;1422;-85
2022/11/21 11:07:20;;;;;;;;;;;2.20;89.70;;;;;;5024447;28;1580;-90
2022/11/21 11:09:51;;;;;;;;;;;2.10;89.50;;;;;;5022534;28;1492;-87
2022/11/21 11:13:32;;;;;;;;;;;2.20;87.80;;;;;;5022602;28;1543;-85
2022/11/21 11:15:18;;;;;;;;;;;2.40;89.10;;;;;;5018031;28;2477;-85
2022/11/21 11:17:49;;;;;;;;;;;2.50;88.10;;;;;;5023049;28;2431;-87
2022/11/21 11:20:30;;;;;;;;;;;2.60;87.90;;;;;;5021024;28;1894;-85
2022/11/21 11:22:58;;;;;;;;;;;2.80;87.00;;;;;;5022092;28;974;-84
2022/11/21 11:25:26;;;;;;;;;;;2.90;85.60;;;;;;5020789;28;2323;-86
2022/11/21 11:27:56;;;;;;;;;;;3.00;85.30;;;;;;5022555;28;1556;-85
2022/11/21 11:30:25;;;;;;;;;;;3.20;86.00;;;;;;5024110;28;1049;-87
2022/11/21 11:32:53;;;;;;;;;;;3.30;84.10;;;;;;5038285;28;1297;-86
2022/11/21 11:35:22;;;;;;;;;;;3.50;84.20;;;;;;5026653;28;1522;-87
2022/11/21 11:37:58;;;;;;;;;;;3.60;84.60;;;;;;5020053;28;1552;-87
2022/11/21 11:40:29;;;;;;;;;;;3.60;83.40;;;;;;5019407;28;1961;-86
2022/11/21 11:48:38;;;;;;;;;;;3.90;82.50;;;;;;5020225;28;1570;-87
2022/11/21 11:51:27;;;;;;;;;;;3.70;81.90;;;;;;5021256;28;1684;-87
2022/11/21 11:54:02;;;;;;;;;;;3.80;81.00;;;;;;5021060;28;1565;-86
2022/11/21 11:56:32;;;;;;;;;;;3.80;80.40;;;;;;5021930;28;987;-89
2022/11/21 11:59:02;;;;;;;;;;;3.80;79.60;;;;;;5021633;28;1721;-88
2022/11/21 12:01:33;;;;;;;;;;;3.80;79.30;;;;;;5021346;28;1914;-87
2022/11/21 12:04:10;;;;;;;;;;;3.90;79.30;;;;;;5021733;28;759;-87
2022/11/21 12:06:41;;;;;;;;;;;4.00;78.50;;;;;;5020934;28;1636;-87
2022/11/21 12:09:32;;;;;;;;;;;4.00;77.20;;;;;;5008014;28;1720;-87
2022/11/21 12:12:08;;;;;;;;;;;4.20;77.20;;;;;;5019314;28;1692;-87
2022/11/21 12:17:35;;;;;;;;;;;4.20;77.60;;;;;;5015360;28;1417;-88
2022/11/21 12:20:12;;;;;;;;;;;4.10;76.80;;;;;;5019158;28;1402;-86
2022/11/21 12:22:40;;;;;;;;;;;4.10;76.40;;;;;;5017796;28;1470;-86
2022/11/21 12:25:12;;;;;;;;;;;4.20;75.00;;;;;;5012725;28;1559;-84
2022/11/21 12:27:41;;;;;;;;;;;4.00;75.80;;;;;;5020192;28;887;-88
2022/11/21 12:30:22;;;;;;;;;;;3.80;75.80;;;;;;5016286;28;1327;-86
2022/11/21 12:33:02;;;;;;;;;;;3.90;75.40;;;;;;5020406;28;1598;-84
2022/11/21 12:35:44;;;;;;;;;;;3.80;73.40;;;;;;5019341;28;1435;-89
2022/11/21 12:38:21;;;;;;;;;;;3.80;72.80;;;;;;5018419;28;1476;-85
2022/11/21 12:40:56;;;;;;;;;;;3.70;73.20;;;;;;5008482;28;1879;-90
2022/11/21 12:43:30;;;;;;;;;;;3.90;73.50;;;;;;5015094;28;1560;-88
2022/11/21 12:55:00;;;;;;;;;;;3.60;73.40;;;;;;5003096;28;1724;-89
2022/11/21 12:57:33;;;;;;;;;;;3.60;73.50;;;;;;5004475;28;1530;-88
2022/11/21 13:00:07;;;;;;;;;;;3.60;73.10;;;;;;4999535;28;1449;-87
2022/11/21 13:02:44;;;;;;;;;;;3.60;74.40;;;;;;5000073;28;1922;-91
2022/11/21 13:05:13;;;;;;;;;;;3.60;73.50;;;;;;5019846;28;1567;-91
2022/11/21 13:07:41;;;;;;;;;;;3.70;74.20;;;;;;5020470;28;1509;-90
2022/11/21 13:10:12;;;;;;;;;;;3.60;75.60;;;;;;5019575;28;1627;-88
2022/11/21 13:12:44;;;;;;;;;;;3.60;77.30;;;;;;5013993;28;1641;-87
2022/11/21 13:15:21;;;;;;;;;;;3.70;77.70;;;;;;5016329;28;1560;-86
2022/11/21 13:17:53;;;;;;;;;;;3.50;77.20;;;;;;5019306;28;1312;-88
2022/11/21 13:20:24;;;;;;;;;;;3.50;77.80;;;;;;5019480;28;935;-88
2022/11/21 13:22:53;;;;;;;;;;;3.40;78.10;;;;;;5019205;28;1910;-86
2022/11/21 13:25:36;;;;;;;;;;;3.60;79.20;;;;;;5017954;28;1505;-88
2022/11/21 13:28:24;;;;;;;;;;;3.40;79.50;;;;;;5019321;28;1368;-89
2022/11/21 13:30:54;;;;;;;;;;;3.40;80.00;;;;;;5018719;28;1168;-87
2022/11/21 13:33:40;;;;;;;;;;;3.50;79.40;;;;;;5019611;28;1417;-88
2022/11/21 13:36:10;;;;;;;;;;;3.20;80.10;;;;;;5019666;28;1735;-86
2022/11/21 13:38:52;;;;;;;;;;;3.20;79.70;;;;;;5021042;28;1426;-91
2022/11/21 13:44:37;;;;;;;;;;;2.90;79.50;;;;;;5024065;28;1405;-85
2022/11/21 13:47:31;;;;;;;;;;;2.80;79.90;;;;;;5025459;28;1854;-86
2022/11/21 13:50:03;;;;;;;;;;;3.40;80.50;;;;;;5023596;28;1427;-88
2022/11/21 13:52:35;;;;;;;;;;;3.40;81.40;;;;;;5036935;28;1061;-87
2022/11/21 13:55:18;;;;;;;;;;;3.00;80.50;;;;;;5023786;28;1566;-86
2022/11/21 13:57:53;;;;;;;;;;;2.90;82.20;;;;;;5020164;28;1411;-84
2022/11/21 14:00:30;;;;;;;;;;;3.00;82.70;;;;;;5023999;28;1564;-88
2022/11/21 14:03:22;;;;;;;;;;;2.80;83.20;;;;;;5020342;28;2041;-86
2022/11/21 14:06:00;;;;;;;;;;;2.70;83.60;;;;;;5016670;28;1306;-85
2022/11/21 14:08:29;;;;;;;;;;;2.80;84.40;;;;;;5010363;28;1296;-85
2022/11/21 14:10:57;;;;;;;;;;;2.70;83.70;;;;;;5018574;28;1301;-85
2022/11/21 14:13:27;;;;;;;;;;;2.80;84.20;;;;;;5019297;28;1156;-88
2022/11/21 14:16:03;;;;;;;;;;;2.70;84.40;;;;;;5020789;28;1572;-86
2022/11/21 14:18:33;;;;;;;;;;;2.70;84.80;;;;;;5016794;28;1515;-85
2022/11/21 14:21:03;;;;;;;;;;;2.80;84.80;;;;;;5019696;28;1502;-86
2022/11/21 14:23:32;;;;;;;;;;;2.60;84.80;;;;;;5018648;28;1989;-87
2022/11/21 14:26:02;;;;;;;;;;;2.60;85.10;;;;;;5018204;28;1800;-86
2022/11/21 14:28:30;;;;;;;;;;;2.50;85.40;;;;;;5019483;28;1647;-88
2022/11/21 14:31:01;;;;;;;;;;;2.60;85.80;;;;;;5020248;28;1531;-87
2022/11/21 14:33:31;;;;;;;;;;;2.40;86.70;;;;;;5023048;28;1600;-87
2022/11/21 14:36:04;;;;;;;;;;;2.40;87.00;;;;;;5024566;28;1509;-85
2022/11/21 14:38:33;;;;;;;;;;;2.30;87.20;;;;;;5022077;28;1560;-86
2022/11/21 14:41:20;;;;;;;;;;;2.40;87.40;;;;;;5023459;28;1709;-86
2022/11/21 14:43:48;;;;;;;;;;;2.30;87.20;;;;;;5021177;28;1045;-85
2022/11/21 14:46:16;;;;;;;;;;;2.30;86.70;;;;;;5020771;28;1406;-85
2022/11/21 14:48:44;;;;;;;;;;;2.40;87.60;;;;;;5021611;28;1405;-86
2022/11/21 14:51:18;;;;;;;;;;;2.10;86.20;;;;;;5019862;28;1104;-87
2022/11/21 14:53:51;;;;;;;;;;;2.30;87.00;;;;;;5017312;28;1486;-84
2022/11/21 14:56:21;;;;;;;;;;;2.30;86.90;;;;;;5023480;28;1484;-84
2022/11/21 14:58:52;;;;;;;;;;;2.00;88.40;;;;;;5022140;28;1517;-87
2022/11/21 15:01:21;;;;;;;;;;;2.00;88.40;;;;;;5036544;28;1081;-87
2022/11/21 15:03:54;;;;;;;;;;;1.90;88.10;;;;;;5034289;28;1970;-84
2022/11/21 15:06:25;;;;;;;;;;;1.90;88.80;;;;;;5034553;28;1398;-84
2022/11/21 15:08:58;;;;;;;;;;;1.90;88.90;;;;;;5039038;28;1423;-83
2022/11/21 15:11:47;;;;;;;;;;;1.80;89.20;;;;;;5040292;28;1136;-86
2022/11/21 15:14:19;;;;;;;;;;;1.70;89.10;;;;;;5027555;28;1596;-86
2022/11/21 15:16:49;;;;;;;;;;;1.70;89.80;;;;;;5023365;28;1745;-84
2022/11/21 15:19:19;;;;;;;;;;;1.60;89.50;;;;;;5021630;28;1546;-85
2022/11/21 15:21:50;;;;;;;;;;;1.60;90.10;;;;;;5021933;28;1949;-86
2022/11/21 15:24:18;;;;;;;;;;;1.50;90.00;;;;;;5024841;28;1001;-86
2022/11/21 15:26:46;;;;;;;;;;;1.50;90.20;;;;;;5022958;28;1656;-82
2022/11/21 15:29:19;;;;;;;;;;;1.40;89.90;;;;;;5022694;28;1512;-85
2022/11/21 15:32:04;;;;;;;;;;;1.40;90.30;;;;;;5021750;28;1206;-84
2022/11/21 15:34:34;;;;;;;;;;;1.40;90.30;;;;;;5021638;28;1548;-84
2022/11/21 15:37:14;;;;;;;;;;;1.30;90.00;;;;;;5019022;28;1731;-86
2022/11/21 15:39:45;;;;;;;;;;;1.50;90.60;;;;;;5018824;28;1312;-85
2022/11/21 15:42:27;;;;;;;;;;;1.20;90.50;;;;;;5018714;28;1902;-82